createdAt,value
2023-05-23T00:02:01.837Z,12.20
2023-05-23T00:04:28.908Z,11.82
2023-05-23T00:06:55.913Z,13.70
2023-05-23T00:09:22.940Z,12.90
2023-05-23T00:11:49.769Z,11.13
2023-05-23T00:14:17.342Z,14.07
2023-05-23T00:16:46.485Z,12.43
2023-05-23T00:19:17.214Z,17.20
2023-05-23T00:21:49.849Z,13.75
2023-05-23T00:24:18.862Z,12.15
2023-05-23T00:26:46.672Z,13.32
2023-05-23T00:29:16.605Z,12.32
2023-05-23T00:31:47.238Z,11.10
2023-05-23T00:34:18.251Z,14.68
2023-05-23T00:36:47.858Z,16.80
2023-05-23T00:39:19.815Z,11.43
2023-05-23T00:41:51.104Z,14.32
2023-05-23T00:46:52.405Z,13.30
2023-05-23T00:51:49.870Z,13.40
2023-05-23T00:54:22.184Z,15.40
2023-05-23T00:56:49.231Z,12.68
2023-05-23T00:59:17.032Z,14.93
2023-05-23T01:01:47.220Z,15.73
2023-05-23T01:04:16.956Z,16.98
2023-05-23T01:06:47.227Z,15.15
2023-05-23T01:09:18.604Z,14.90
2023-05-23T01:12:00.740Z,14.23
2023-05-23T01:14:37.907Z,14.98
2023-05-23T01:17:16.145Z,13.57
2023-05-23T01:20:02.180Z,14.25
2023-05-23T01:22:53.976Z,14.20
2023-05-23T01:25:37.458Z,13.13
2023-05-23T01:28:07.592Z,16.23
2023-05-23T01:30:40.459Z,16.48
2023-05-23T01:33:09.279Z,18.30
2023-05-23T01:35:37.562Z,14.95
2023-05-23T01:38:04.442Z,18.95
2023-05-23T01:40:31.330Z,15.60
2023-05-23T01:42:58.700Z,16.55
2023-05-23T01:45:28.152Z,17.15
2023-05-23T01:47:56.460Z,14.52
2023-05-23T01:50:24.604Z,15.57
2023-05-23T01:52:52.502Z,13.40
2023-05-23T01:55:22.970Z,15.02
2023-05-23T01:57:56.596Z,15.05
2023-05-23T02:02:37.739Z,18.67
2023-05-23T02:04:00.397Z,16.67
2023-05-23T02:11:58.037Z,17.15
2023-05-23T02:14:26.664Z,16.40
2023-05-23T02:16:54.000Z,15.60
2023-05-23T02:19:21.257Z,15.73
2023-05-23T02:21:48.168Z,18.38
2023-05-23T02:24:15.068Z,17.77
2023-05-23T02:26:42.114Z,18.50
2023-05-23T02:29:11.447Z,14.50
2023-05-23T02:31:38.326Z,17.98
2023-05-23T02:34:05.096Z,17.63
2023-05-23T02:36:33.381Z,17.42
2023-05-23T02:39:00.324Z,19.25
2023-05-23T02:41:27.122Z,18.02
2023-05-23T02:43:54.824Z,17.30
2023-05-23T02:46:21.712Z,18.50
2023-05-23T02:48:48.532Z,17.55
2023-05-23T02:51:15.419Z,17.02
2023-05-23T02:53:42.396Z,19.27
2023-05-23T02:56:10.151Z,19.45
2023-05-23T02:58:37.117Z,18.73
2023-05-23T03:01:05.835Z,21.98
2023-05-23T03:03:34.343Z,18.17
2023-05-23T03:06:03.514Z,19.80
2023-05-23T03:08:30.391Z,18.95
2023-05-23T03:10:57.378Z,22.15
2023-05-23T03:13:24.367Z,17.58
2023-05-23T03:15:51.772Z,20.75
2023-05-23T03:18:18.815Z,20.58
2023-05-23T03:20:45.860Z,20.70
2023-05-23T03:23:12.802Z,21.20
2023-05-23T03:25:40.064Z,21.55
2023-05-23T03:28:07.212Z,21.65
2023-05-23T03:30:34.356Z,19.27
2023-05-23T03:33:02.335Z,19.02
2023-05-23T03:35:29.404Z,19.52
2023-05-23T03:37:56.560Z,20.95
2023-05-23T03:40:23.806Z,20.48
2023-05-23T03:43:05.029Z,24.77
2023-05-23T03:45:32.770Z,25.90
2023-05-23T03:48:00.850Z,21.50
2023-05-23T03:50:28.441Z,21.13
2023-05-23T03:52:55.471Z,24.25
2023-05-23T03:55:24.411Z,21.42
2023-05-23T03:57:52.484Z,20.90
2023-05-23T04:00:19.836Z,24.83
2023-05-23T04:02:47.555Z,23.17
2023-05-23T04:05:14.680Z,20.23
2023-05-23T04:07:42.166Z,24.02
2023-05-23T04:10:10.250Z,26.85
2023-05-23T04:12:37.795Z,23.63
2023-05-23T04:15:05.514Z,24.63
2023-05-23T04:17:32.603Z,26.50
2023-05-23T04:19:59.881Z,26.05
2023-05-23T04:22:26.773Z,26.77
2023-05-23T04:24:53.723Z,27.35
2023-05-23T04:27:22.312Z,26.90
2023-05-23T04:29:49.359Z,25.55
2023-05-23T04:32:18.546Z,28.05
2023-05-23T04:34:45.614Z,25.10
2023-05-23T04:37:12.895Z,23.60
2023-05-23T04:39:40.118Z,25.90
2023-05-23T04:42:07.424Z,25.48
2023-05-23T04:44:37.461Z,27.10
2023-05-23T04:47:04.535Z,24.50
2023-05-23T04:49:34.129Z,28.35
2023-05-23T04:52:01.074Z,25.83
2023-05-23T04:54:27.943Z,28.05
2023-05-23T04:56:54.972Z,25.20
2023-05-23T04:59:21.765Z,27.23
2023-05-23T05:01:48.616Z,30.02
2023-05-23T05:04:16.299Z,28.67
2023-05-23T05:06:43.144Z,31.25
2023-05-23T05:09:09.994Z,26.10
2023-05-23T05:11:36.901Z,30.05
2023-05-23T05:14:03.749Z,27.63
2023-05-23T05:16:30.904Z,28.80
2023-05-23T05:18:57.924Z,30.92
2023-05-23T05:21:24.880Z,27.42
2023-05-23T05:23:52.509Z,27.10
2023-05-23T05:26:19.295Z,24.38
2023-05-23T05:28:46.305Z,29.60
2023-05-23T05:31:15.396Z,26.52
2023-05-23T05:33:46.155Z,31.88
2023-05-23T05:36:13.284Z,30.13
2023-05-23T05:38:40.212Z,29.35
2023-05-23T05:41:09.118Z,27.02
2023-05-23T05:43:36.516Z,32.38
2023-05-23T05:46:03.468Z,27.42
2023-05-23T05:48:30.327Z,31.70
2023-05-23T05:50:57.234Z,32.15
2023-05-23T05:53:24.263Z,27.80
2023-05-23T05:55:51.129Z,31.83
2023-05-23T05:58:17.881Z,29.33
2023-05-23T06:00:45.452Z,31.27
2023-05-23T06:03:15.920Z,30.80
2023-05-23T06:05:43.310Z,31.10
2023-05-23T06:08:10.506Z,33.90
2023-05-23T06:10:39.767Z,29.15
2023-05-23T06:13:06.797Z,32.20
2023-05-23T06:15:33.676Z,30.80
2023-05-23T06:18:00.633Z,31.77
2023-05-23T06:20:27.583Z,31.30
2023-05-23T06:22:54.708Z,32.20
2023-05-23T06:25:21.906Z,30.92
2023-05-23T06:27:48.940Z,31.58
2023-05-23T06:30:16.093Z,41.45
2023-05-23T06:32:42.892Z,32.40
2023-05-23T06:35:10.413Z,32.10
2023-05-23T06:37:37.286Z,33.53
2023-05-23T06:40:04.859Z,34.88
2023-05-23T06:42:31.922Z,30.65
2023-05-23T06:44:58.711Z,33.63
2023-05-23T06:47:25.626Z,30.52
2023-05-23T06:49:52.524Z,36.22
2023-05-23T06:52:19.499Z,31.63
2023-05-23T06:54:46.487Z,32.63
2023-05-23T06:57:13.283Z,28.10
2023-05-23T06:59:40.252Z,28.48
2023-05-23T07:02:07.170Z,27.88
2023-05-23T07:04:34.155Z,33.08
2023-05-23T07:07:02.108Z,29.75
2023-05-23T07:09:29.003Z,28.42
2023-05-23T07:11:55.837Z,33.72
2023-05-23T07:14:22.638Z,30.50
2023-05-23T07:16:49.444Z,33.10
2023-05-23T07:19:16.377Z,32.15
2023-05-23T07:21:43.357Z,32.30
2023-05-23T07:24:10.174Z,31.90
2023-05-23T07:26:39.418Z,31.95
2023-05-23T07:29:07.170Z,31.83
2023-05-23T07:31:34.286Z,30.05
2023-05-23T07:34:01.301Z,29.25
2023-05-23T07:36:29.552Z,30.70
2023-05-23T07:38:56.529Z,32.95
2023-05-23T07:41:25.177Z,33.03
2023-05-23T07:43:51.996Z,27.83
2023-05-23T09:01:56.160Z,25.90
2023-05-23T09:04:23.271Z,23.88
2023-05-23T09:07:10.072Z,24.00
2023-05-23T09:09:36.911Z,24.55
2023-05-23T09:12:03.912Z,24.58
2023-05-23T09:14:32.026Z,23.67
2023-05-23T09:17:04.501Z,21.60
2023-05-23T09:19:31.954Z,22.35
2023-05-23T09:21:58.951Z,24.02
2023-05-23T09:24:35.148Z,22.65
2023-05-23T09:27:02.122Z,24.02
2023-05-23T09:29:28.998Z,29.25
2023-05-23T09:32:10.384Z,26.08
2023-05-23T09:34:41.173Z,26.80
2023-05-23T09:37:08.534Z,25.47
2023-05-23T09:39:38.795Z,25.73
2023-05-23T09:42:06.454Z,24.98
2023-05-23T09:44:41.415Z,27.33
2023-05-23T09:47:08.398Z,24.58
2023-05-23T09:49:35.452Z,26.95
2023-05-23T09:52:02.438Z,28.38
2023-05-23T09:54:29.399Z,26.23
2023-05-23T09:56:57.795Z,25.83
2023-05-23T09:59:28.553Z,25.40
2023-05-23T10:01:57.656Z,21.70
2023-05-23T10:04:26.909Z,20.38
2023-05-23T10:07:00.193Z,23.00
2023-05-23T10:09:31.374Z,20.00
2023-05-23T10:12:16.957Z,18.77
2023-05-23T10:14:46.830Z,22.48
2023-05-23T10:17:26.675Z,19.88
2023-05-23T10:20:08.336Z,17.08
2023-05-23T10:22:38.947Z,17.10
2023-05-23T10:25:08.385Z,17.77
2023-05-23T10:27:35.621Z,17.38
2023-05-23T10:30:03.251Z,19.80
2023-05-23T10:32:30.924Z,18.40
2023-05-23T10:35:29.357Z,19.05
2023-05-23T10:38:09.788Z,17.42
2023-05-23T10:40:57.687Z,20.13
2023-05-23T10:43:31.228Z,16.95
2023-05-23T10:45:58.177Z,16.27
2023-05-23T10:48:40.864Z,15.40
2023-05-23T10:51:15.371Z,17.00
2023-05-23T10:53:44.524Z,14.05
2023-05-23T10:56:20.219Z,13.95
2023-05-23T10:58:47.155Z,13.57
2023-05-23T11:01:20.171Z,14.93
2023-05-23T11:03:47.527Z,12.52
2023-05-23T11:06:42.901Z,15.65
2023-05-23T11:09:18.825Z,18.88
2023-05-23T11:11:55.593Z,15.65
2023-05-23T11:14:32.865Z,14.20
2023-05-23T11:17:30.009Z,13.30
2023-05-23T11:20:09.765Z,13.15
2023-05-23T11:22:37.061Z,13.35
2023-05-23T11:25:09.930Z,12.88
2023-05-23T11:27:40.560Z,12.57
2023-05-23T11:30:13.843Z,12.97
2023-05-23T11:32:42.387Z,13.30
2023-05-23T11:35:10.863Z,14.45
2023-05-23T11:37:41.217Z,13.55
2023-05-23T11:40:40.326Z,12.18
2023-05-23T11:43:10.196Z,14.30
2023-05-23T11:45:38.775Z,12.60
2023-05-23T11:48:16.976Z,15.05
2023-05-23T11:51:02.982Z,15.77
2023-05-23T11:53:30.576Z,13.68
2023-05-23T11:56:00.474Z,14.95
2023-05-23T11:58:35.320Z,12.88
2023-05-23T12:01:10.140Z,11.63
2023-05-23T12:03:57.784Z,14.35
2023-05-23T12:06:26.054Z,13.88
2023-05-23T12:08:53.008Z,15.18
2023-05-23T12:11:19.968Z,13.05
2023-05-23T12:13:47.002Z,16.63
2023-05-23T12:16:15.024Z,13.07
2023-05-23T12:18:43.136Z,12.85
2023-05-23T12:21:10.532Z,12.75
2023-05-23T12:23:39.726Z,16.65
2023-05-23T12:26:07.756Z,14.30
2023-05-23T12:28:37.699Z,14.88
2023-05-23T12:31:17.312Z,13.38
2023-05-23T12:33:47.979Z,13.57
2023-05-23T12:36:21.371Z,13.20
2023-05-23T12:38:48.285Z,12.88
2023-05-23T12:41:20.729Z,13.95
2023-05-23T12:43:55.972Z,13.65
2023-05-23T12:46:24.765Z,12.73
2023-05-23T12:48:52.106Z,14.07
2023-05-23T12:51:19.562Z,12.85
2023-05-23T12:53:46.549Z,14.65
2023-05-23T12:56:13.760Z,14.10
2023-05-23T12:58:40.628Z,12.98
2023-05-23T13:01:07.611Z,15.40
2023-05-23T13:03:34.713Z,14.20
2023-05-23T13:06:01.775Z,14.40
2023-05-23T13:08:29.534Z,13.50
2023-05-23T13:10:57.206Z,14.63
2023-05-23T13:13:24.435Z,13.82
2023-05-23T13:15:51.806Z,13.90
2023-05-23T13:18:19.129Z,15.65
2023-05-23T13:20:46.724Z,12.90
2023-05-23T13:23:14.263Z,12.50
2023-05-23T13:25:41.569Z,13.20
2023-05-23T13:28:08.987Z,14.55
2023-05-23T13:30:36.051Z,11.02
2023-05-23T13:33:03.961Z,12.10
2023-05-23T13:35:31.259Z,14.63
2023-05-23T13:37:58.174Z,11.48
2023-05-23T13:40:25.155Z,11.68
2023-05-23T13:42:52.161Z,12.18
2023-05-23T13:45:20.232Z,10.93
2023-05-23T13:47:47.461Z,11.68
2023-05-23T13:50:14.891Z,13.52
2023-05-23T13:52:44.337Z,14.65
2023-05-23T13:55:12.877Z,13.13
2023-05-23T13:57:39.770Z,12.23
2023-05-23T14:00:08.963Z,13.80
2023-05-23T14:02:36.002Z,12.07
2023-05-23T14:05:03.679Z,13.30
2023-05-23T14:07:30.840Z,11.60
2023-05-23T14:09:58.522Z,11.05
2023-05-23T14:12:26.194Z,10.93
2023-05-23T14:14:53.089Z,11.52
2023-05-23T14:17:19.876Z,12.02
2023-05-23T14:19:47.665Z,11.73
2023-05-23T14:22:14.611Z,12.68
2023-05-23T14:24:41.517Z,13.80
2023-05-23T14:27:10.789Z,13.50
2023-05-23T14:29:38.458Z,10.90
2023-05-23T14:32:05.584Z,12.57
2023-05-23T14:34:32.399Z,10.35
2023-05-23T14:36:59.166Z,13.10
2023-05-23T14:39:25.940Z,10.77
2023-05-23T14:41:52.751Z,11.48
2023-05-23T14:44:19.688Z,10.55
2023-05-23T14:46:50.205Z,11.93
2023-05-23T14:49:17.889Z,10.40
2023-05-23T14:51:50.455Z,13.23
2023-05-23T14:54:18.708Z,13.10
2023-05-23T14:56:45.707Z,12.38
2023-05-23T14:59:12.555Z,11.70
2023-05-23T15:01:40.649Z,9.32
2023-05-23T15:04:09.394Z,9.68
2023-05-23T15:06:37.981Z,10.27
2023-05-23T15:09:05.043Z,10.65
2023-05-23T15:11:32.348Z,9.30
2023-05-23T15:13:59.856Z,11.43
2023-05-23T15:16:27.098Z,8.57
2023-05-23T15:18:54.005Z,8.07
2023-05-23T15:21:21.027Z,9.57
2023-05-23T15:23:47.894Z,8.75
2023-05-23T15:26:14.659Z,10.27
2023-05-23T15:28:41.433Z,8.70
2023-05-23T15:31:08.173Z,7.63
2023-05-23T15:33:35.006Z,7.00
2023-05-23T15:36:02.262Z,7.38
2023-05-23T15:38:29.081Z,8.85
2023-05-23T15:40:56.771Z,7.07
2023-05-23T15:43:25.078Z,6.72
2023-05-23T15:45:52.681Z,5.85
2023-05-23T15:48:19.673Z,7.35
2023-05-23T15:50:46.782Z,7.85
2023-05-23T15:53:13.782Z,5.47
2023-05-23T15:55:42.717Z,6.47
2023-05-23T15:58:10.740Z,6.18
2023-05-23T16:00:37.876Z,6.47
2023-05-23T16:03:05.044Z,5.07
2023-05-23T16:05:32.132Z,8.05
2023-05-23T16:07:58.928Z,8.50
2023-05-23T16:10:25.883Z,5.85
2023-05-23T16:12:52.730Z,7.32
2023-05-23T16:15:19.695Z,5.53
2023-05-23T16:17:46.667Z,5.55
2023-05-23T16:20:13.539Z,4.45
2023-05-23T16:22:41.316Z,4.40
2023-05-23T16:25:10.420Z,4.88
2023-05-23T16:27:37.571Z,5.35
2023-05-23T16:30:06.292Z,4.03
2023-05-23T16:32:34.448Z,5.60
2023-05-23T16:35:01.552Z,6.38
2023-05-23T16:37:28.640Z,3.33
2023-05-23T16:39:55.594Z,5.28
2023-05-23T16:42:22.488Z,9.20
2023-05-23T16:44:49.432Z,3.67
2023-05-23T16:47:16.812Z,3.75
2023-05-23T16:49:43.616Z,4.10
2023-05-23T16:52:11.241Z,5.50
2023-05-23T16:54:38.614Z,3.47
2023-05-23T16:57:06.019Z,2.33
2023-05-23T16:59:33.006Z,2.90
2023-05-23T17:02:00.119Z,3.90
2023-05-23T17:04:26.890Z,2.65
2023-05-23T17:06:53.952Z,3.28
2023-05-23T17:09:22.238Z,2.90
2023-05-23T17:11:49.737Z,4.47
2023-05-23T17:14:16.592Z,3.35
2023-05-23T17:16:46.268Z,4.18
2023-05-23T17:19:13.210Z,2.60
2023-05-23T17:21:50.465Z,3.90
2023-05-23T17:24:17.495Z,4.18
2023-05-23T17:26:44.379Z,3.92
2023-05-23T17:29:11.244Z,5.20
2023-05-23T17:31:38.248Z,4.63
2023-05-23T17:34:05.224Z,3.40
2023-05-23T17:36:32.351Z,4.65
2023-05-23T17:38:59.179Z,2.92
2023-05-23T17:41:26.933Z,3.20
2023-05-23T17:43:53.828Z,4.55
2023-05-23T17:46:20.742Z,4.07
2023-05-23T17:48:48.313Z,4.47
2023-05-23T17:51:15.880Z,3.25
2023-05-23T17:53:43.464Z,4.32
2023-05-23T17:56:10.470Z,5.28
2023-05-23T17:58:38.872Z,3.05
2023-05-23T18:01:07.311Z,3.92
2023-05-23T18:03:34.209Z,5.30
2023-05-23T18:06:01.140Z,3.53
2023-05-23T18:08:28.046Z,4.97
2023-05-23T18:10:55.484Z,4.95
2023-05-23T18:13:22.497Z,3.92
2023-05-23T18:15:49.523Z,5.20
2023-05-23T18:18:17.981Z,3.20
2023-05-23T18:20:45.138Z,4.63
2023-05-23T18:23:12.177Z,4.50
2023-05-23T18:25:42.018Z,4.82
2023-05-23T18:28:09.057Z,3.80
2023-05-23T18:30:36.092Z,5.15
2023-05-23T18:33:02.956Z,3.00
2023-05-23T18:35:32.764Z,5.13
2023-05-23T18:38:02.826Z,4.32
2023-05-23T18:40:29.711Z,4.43
2023-05-23T18:42:59.117Z,4.53
2023-05-23T18:45:31.986Z,4.25
2023-05-23T18:47:58.870Z,4.18
2023-05-23T18:50:26.469Z,4.32
2023-05-23T18:52:53.580Z,4.80
2023-05-23T18:55:20.432Z,5.10
2023-05-23T18:57:49.930Z,4.95
2023-05-23T19:00:17.192Z,7.97
2023-05-23T19:02:45.846Z,5.38
2023-05-23T19:05:13.238Z,5.80
2023-05-23T19:07:40.279Z,5.38
2023-05-23T19:10:07.604Z,5.38
2023-05-23T19:12:34.719Z,31.40
2023-05-23T19:15:02.016Z,92.70
2023-05-23T19:17:32.715Z,22.00
2023-05-23T19:19:59.554Z,9.32
2023-05-23T19:22:29.644Z,4.93
2023-05-23T19:25:00.578Z,6.90
2023-05-23T19:27:27.354Z,5.70
2023-05-23T19:29:54.534Z,5.00
2023-05-23T19:32:21.502Z,6.35
2023-05-23T19:34:48.796Z,5.80
2023-05-23T19:37:15.734Z,8.23
2023-05-23T19:39:45.986Z,8.40
2023-05-23T19:42:13.466Z,5.93
2023-05-23T19:44:42.904Z,7.80
2023-05-23T19:47:09.758Z,7.40
2023-05-23T19:49:36.685Z,6.53
2023-05-23T19:52:03.869Z,5.68
2023-05-23T19:54:30.806Z,6.15
2023-05-23T19:57:00.334Z,6.30
2023-05-23T19:59:27.247Z,7.55
2023-05-23T20:01:54.157Z,5.75
2023-05-23T20:04:24.073Z,5.90
2023-05-23T20:06:51.702Z,8.90
2023-05-23T20:09:18.489Z,11.02
2023-05-23T20:11:45.351Z,5.90
2023-05-23T20:14:15.037Z,7.15
2023-05-23T20:16:42.011Z,6.57
2023-05-23T20:19:09.725Z,6.60
2023-05-23T20:21:36.713Z,5.25
2023-05-23T20:24:03.619Z,5.22
2023-05-23T20:26:30.539Z,6.15
2023-05-23T20:28:57.353Z,5.80
2023-05-23T20:31:24.182Z,7.05
2023-05-23T20:33:52.349Z,4.70
2023-05-23T20:36:20.938Z,4.70
2023-05-23T20:38:47.962Z,6.93
2023-05-23T20:41:15.028Z,4.53
2023-05-23T20:43:41.868Z,5.93
2023-05-23T20:46:11.806Z,5.25
2023-05-23T20:48:38.749Z,5.38
2023-05-23T20:51:06.117Z,4.50
2023-05-23T20:53:33.343Z,3.75
2023-05-23T20:56:00.848Z,7.10
2023-05-23T20:58:28.008Z,6.70
2023-05-23T21:00:55.018Z,7.30
2023-05-23T21:03:22.213Z,6.13
2023-05-23T21:05:49.008Z,5.65
2023-05-23T21:08:15.822Z,4.45
2023-05-23T21:10:43.409Z,5.15
2023-05-23T21:13:11.963Z,6.20
2023-05-23T21:15:38.958Z,6.30
2023-05-23T21:18:05.951Z,5.47
2023-05-23T21:20:32.741Z,4.65
2023-05-23T21:22:59.535Z,5.10
2023-05-23T21:25:26.470Z,4.68
2023-05-23T21:27:53.244Z,5.85
2023-05-23T21:30:20.094Z,5.07
2023-05-23T21:32:47.290Z,4.95
2023-05-23T21:35:14.273Z,3.95
2023-05-23T21:37:41.098Z,4.93
2023-05-23T21:40:08.591Z,4.50
2023-05-23T21:42:35.473Z,8.02
2023-05-23T21:45:02.320Z,5.60
2023-05-23T21:47:29.134Z,5.38
2023-05-23T21:49:56.073Z,5.45
2023-05-23T21:52:22.833Z,4.95
2023-05-23T22:08:58.282Z,8.90
2023-05-23T23:17:18.991Z,5.57
2023-05-23T23:25:28.067Z,4.50
2023-05-23T23:28:07.413Z,3.67
2023-05-23T23:30:44.013Z,5.13
2023-05-23T23:36:28.530Z,4.97
2023-05-23T23:48:23.580Z,5.20
